Where is Igreja de Santa Clara in Portugal?

 

Igreja de Santa Clara is situated in the region Santarem in Portugal!

Search the name of a city:

Igreja Matriz, Igreja da Misericórdia, Igreja e Mosteiro de São Gonçalo, Igreja Penha, Igreja da Graça

Here you will find the location of Igreja de Santa Clara on a map.
To see how it currently looks like outside, below are some pictures of the area from online web cameras.
You can also find the distance to the main cities in the region and to cities in the rest of Portugal.

All places in the world called .


Where is Igreja de Santa Clara on the map?




Webcams near Igreja de Santa Clara

Benavente › North-East: AIrport, METAR: BENAV 180005Z 36004KT 17/14 Q1015.


Benavente › North-East: AIrport, METAR: BENAV 180005Z 36004KT 17/14 Q1015 - Day time
Current
Benavente › North-East: AIrport, METAR: BENAV 180005Z 36004KT 17/14 Q1015 - Current

Caldas da Rainha.


Caldas da Rainha - Day time
Current
Caldas da Rainha - Current

Abrantes › North-West: › North-West: Zona Alta (Torre).


Abrantes › North-West: › North-West: Zona Alta (Torre) - Day time
Current
Abrantes › North-West: › North-West: Zona Alta (Torre) - Current

Webcams provided by webcams.travel


Distances

Where is Igreja de Santa Clara relative to other places?

Top 10 cities in Santarem and distance from Igreja de Santa Clara.

City#Populationkmmiles
Santarém12938500
Entroncamento2198873119
Tomar3191684729
Torres Novas4145262918
Samora Correia5141543723
Abrantes6136464830
Ourém7127294528
Rio Maior8120642415
Fátima9117984226
Almeirim101155664

Top 10 cities in Portugal and distance from Igreja de Santa Clara.

City # Populationkmmiles
Lisbon15177987144
Porto2249630212132
Amadora31788567245
Braga4121393257160
Setúbal51171098050
Coimbra610658010968
Queluz71033987245
Funchal8980411041647
Vila Nova de Gaia970810211131
Loures10662306339



Alerts and advice Portugal

Advice and information about traveling and security in Portugal.

With a travel advise, tourists can be informed about security risks during traveling or vacation in a foreign country. Be informed about the risks of kidnapping, armed robbery, bombings, natural disasters or war. Know which areas are unsafe in Portugalo. Be vigilant, or avoid certain areas when on vacation in Portugal.

Alerts and advice



Travel information Portugal

Information on travel documents, visa applications and the cost of a visa.
Contact information of embassies in Portugal.
Different types of travel insurance.

Travel information

Info

Statistics and Geographics

Portugal is made up of 15299 cities in 20 regions.

The region Santarem has 1174 cities.

Where is Igreja de Santa Clara in Portugal?